Terminal Aerodrome Forecast
Issued by NWS Wilmington, NC

Home | Current Version | Previous Version | Text Only | Print | Product List | Glossary On
Versions: 1 2 3 4 5 6 7 8 9 10 11 12 13 14 15 16 17 18 19 20
000
FTUS42 KILM 022111 AAA
TAFFLO
TAF AMD
KFLO 022111Z 0221/0318 23008KT P6SM SCT050 SCT110 BKN200
      TEMPO 0221/0224 VRB15G30KT 2SM +TSRA SCT015 BKN020CB OVC050
     FM030000 28010KT 6SM -SHRA VCTS BKN050CB
     FM030200 22008KT P6SM VCSH SCT060 SCT140 BKN200
     FM030600 22008KT P6SM VCSH BKN070
     FM031300 24010KT P6SM SCT070 BKN200=

USA.gov is the U.S. government's official web portal to all federal, state and local government web resources and services.